createdAt,value
2019-02-21T00:01:03.711Z,14.73
2019-02-21T00:03:35.245Z,18.23
2019-02-21T00:06:06.197Z,16.43
2019-02-21T00:08:37.035Z,16.03
2019-02-21T00:11:07.820Z,19.63
2019-02-21T00:13:37.553Z,19.93
2019-02-21T00:16:07.080Z,18.60
2019-02-21T00:18:37.783Z,18.63
2019-02-21T00:21:06.898Z,19.17
2019-02-21T00:23:36.059Z,18.30
2019-02-21T00:26:05.474Z,21.33
2019-02-21T00:28:35.428Z,20.63
2019-02-21T00:31:04.590Z,24.67
2019-02-21T00:33:33.679Z,18.33
2019-02-21T00:36:03.702Z,18.83
2019-02-21T00:38:33.520Z,19.67
2019-02-21T00:41:02.550Z,18.17
2019-02-21T00:43:32.733Z,18.53
2019-02-21T00:46:02.937Z,20.47
2019-02-21T00:48:34.395Z,20.43
2019-02-21T00:51:03.553Z,18.60
2019-02-21T00:53:32.625Z,19.20
2019-02-21T00:56:01.809Z,17.70
2019-02-21T00:58:30.784Z,21.07
2019-02-21T01:01:00.279Z,18.43
2019-02-21T01:03:29.476Z,20.03
2019-02-21T01:05:58.716Z,18.33
2019-02-21T01:08:27.784Z,19.33
2019-02-21T01:10:56.766Z,15.90
2019-02-21T01:13:26.008Z,18.40
2019-02-21T01:15:55.419Z,19.70
2019-02-21T01:18:24.774Z,17.30
2019-02-21T01:20:53.922Z,18.43
2019-02-21T01:23:23.101Z,18.27
2019-02-21T01:25:52.324Z,17.80
2019-02-21T01:28:21.614Z,19.30
2019-02-21T01:30:57.079Z,17.23
2019-02-21T01:33:22.008Z,17.70
2019-02-21T01:35:51.011Z,17.73
2019-02-21T01:38:20.846Z,18.73
2019-02-21T01:40:49.902Z,15.90
2019-02-21T01:43:19.156Z,17.77
2019-02-21T01:45:48.274Z,14.70
2019-02-21T01:48:17.371Z,17.40
2019-02-21T01:50:46.362Z,16.30
2019-02-21T01:53:15.514Z,18.20
2019-02-21T01:55:44.950Z,18.53
2019-02-21T01:58:14.164Z,18.47
2019-02-21T02:00:43.274Z,17.30
2019-02-21T02:03:12.578Z,20.47
2019-02-21T02:05:41.696Z,19.40
2019-02-21T02:08:10.813Z,16.47
2019-02-21T02:10:39.945Z,17.70
2019-02-21T02:13:10.436Z,22.30
2019-02-21T02:15:39.946Z,16.33
2019-02-21T02:18:08.966Z,18.80
2019-02-21T02:20:38.166Z,22.50
2019-02-21T02:23:07.346Z,19.03
2019-02-21T02:25:36.403Z,17.13
2019-02-21T02:28:05.838Z,22.63
2019-02-21T02:30:35.342Z,18.30
2019-02-21T02:33:04.378Z,18.77
2019-02-21T02:35:33.752Z,19.90
2019-02-21T02:38:03.156Z,16.60
2019-02-21T02:40:32.372Z,19.37
2019-02-21T02:43:01.571Z,19.57
2019-02-21T02:45:30.827Z,20.30
2019-02-21T02:47:59.884Z,19.20
2019-02-21T02:50:28.951Z,20.97
2019-02-21T02:52:57.994Z,18.23
2019-02-21T02:55:27.106Z,17.73
2019-02-21T02:57:56.184Z,21.00
2019-02-21T03:00:25.329Z,20.77
2019-02-21T03:02:55.175Z,20.23
2019-02-21T03:05:24.189Z,20.13
2019-02-21T03:07:53.265Z,19.57
2019-02-21T03:10:22.581Z,18.77
2019-02-21T03:12:51.751Z,17.70
2019-02-21T03:15:20.892Z,19.77
2019-02-21T03:17:50.082Z,21.00
2019-02-21T03:20:19.151Z,21.00
2019-02-21T03:22:48.473Z,22.03
2019-02-21T03:25:17.652Z,25.60
2019-02-21T03:27:46.974Z,21.30
2019-02-21T03:30:16.095Z,27.97
2019-02-21T03:32:45.315Z,23.80
2019-02-21T03:35:14.475Z,23.10
2019-02-21T03:37:45.509Z,21.07
2019-02-21T03:40:14.710Z,25.13
2019-02-21T03:42:43.805Z,24.10
2019-02-21T03:45:13.322Z,25.77
2019-02-21T03:47:42.365Z,23.23
2019-02-21T03:50:11.967Z,23.63
2019-02-21T03:52:41.405Z,24.93
2019-02-21T03:55:10.805Z,23.83
2019-02-21T03:57:40.830Z,23.57
2019-02-21T04:00:10.285Z,26.80
2019-02-21T04:02:40.251Z,27.53
2019-02-21T04:05:09.592Z,29.67
2019-02-21T04:07:38.839Z,27.07
2019-02-21T04:10:08.335Z,24.80
2019-02-21T04:12:37.758Z,28.00
2019-02-21T04:15:07.808Z,27.70
2019-02-21T04:17:37.262Z,26.13
2019-02-21T04:20:06.557Z,25.57
2019-02-21T04:22:35.890Z,27.47
2019-02-21T04:25:05.313Z,26.83
2019-02-21T04:27:34.558Z,24.13
2019-02-21T04:30:03.776Z,26.60
2019-02-21T04:32:32.940Z,24.07
2019-02-21T04:35:02.154Z,24.77
2019-02-21T04:37:31.264Z,22.77
2019-02-21T04:40:00.353Z,27.93
2019-02-21T04:42:29.649Z,27.03
2019-02-21T04:44:59.517Z,27.57
2019-02-21T04:47:28.717Z,26.90
2019-02-21T04:49:57.992Z,26.77
2019-02-21T04:52:27.323Z,26.03
2019-02-21T04:54:56.462Z,29.80
2019-02-21T04:57:25.609Z,30.97
2019-02-21T04:59:54.703Z,31.50
2019-02-21T05:02:29.294Z,31.67
2019-02-21T05:04:54.710Z,32.30
2019-02-21T05:07:23.871Z,29.33
2019-02-21T05:09:57.938Z,27.03
2019-02-21T05:12:23.755Z,31.60
2019-02-21T05:14:53.087Z,28.87
2019-02-21T05:17:22.353Z,32.17
2019-02-21T05:19:51.506Z,31.30
2019-02-21T05:22:20.794Z,33.77
2019-02-21T05:24:49.929Z,34.97
2019-02-21T05:27:32.015Z,37.40
2019-02-21T05:30:01.397Z,34.83
2019-02-21T05:32:56.104Z,35.37
2019-02-21T05:35:48.075Z,33.80
2019-02-21T05:38:34.976Z,40.13
2019-02-21T05:41:34.858Z,37.53
2019-02-21T05:44:24.869Z,32.77
2019-02-21T05:47:18.993Z,34.97
2019-02-21T05:50:08.892Z,35.80
2019-02-21T05:52:53.623Z,38.57
2019-02-21T05:55:28.325Z,39.90
2019-02-21T05:58:28.471Z,36.13
2019-02-21T06:01:07.434Z,37.90
2019-02-21T06:03:44.471Z,39.30
2019-02-21T06:06:36.107Z,37.77
2019-02-21T06:09:24.680Z,42.33
2019-02-21T06:12:09.876Z,42.53
2019-02-21T06:15:06.841Z,38.87
2019-02-21T06:18:13.181Z,42.40
2019-02-21T06:21:01.312Z,42.67
2019-02-21T06:23:49.130Z,39.80
2019-02-21T06:26:22.792Z,40.10
2019-02-21T06:29:02.907Z,40.20
2019-02-21T06:31:32.015Z,41.03
2019-02-21T06:34:01.304Z,41.63
2019-02-21T06:36:30.764Z,38.10
2019-02-21T06:38:59.934Z,41.13
2019-02-21T06:41:29.910Z,39.03
2019-02-21T06:43:59.731Z,41.03
2019-02-21T06:46:28.865Z,39.40
2019-02-21T06:48:59.082Z,36.17
2019-02-21T06:51:28.567Z,39.53
2019-02-21T06:53:57.794Z,36.10
2019-02-21T06:56:26.975Z,41.93
2019-02-21T06:58:56.204Z,36.87
2019-02-21T07:01:29.241Z,41.87
2019-02-21T07:03:56.521Z,39.23
2019-02-21T07:06:32.004Z,37.33
2019-02-21T07:08:59.725Z,36.43
2019-02-21T07:11:28.069Z,36.03
2019-02-21T07:13:57.447Z,39.83
2019-02-21T07:16:26.738Z,36.53
2019-02-21T07:18:55.727Z,41.43
2019-02-21T07:21:24.817Z,35.93
2019-02-21T07:23:53.944Z,39.70
2019-02-21T07:26:23.286Z,36.33
2019-02-21T07:28:52.919Z,38.60
2019-02-21T07:31:28.801Z,36.83
2019-02-21T07:33:57.411Z,38.23
2019-02-21T07:36:26.614Z,37.50
2019-02-21T07:39:08.430Z,37.10
2019-02-21T07:41:26.635Z,36.70
2019-02-21T07:43:56.097Z,35.53
2019-02-21T07:46:25.333Z,40.57
2019-02-21T07:48:54.894Z,38.87
2019-02-21T07:51:24.080Z,36.73
2019-02-21T07:53:53.690Z,39.73
2019-02-21T07:56:23.146Z,34.30
2019-02-21T07:58:52.291Z,36.30
2019-02-21T08:01:21.670Z,38.33
2019-02-21T08:03:50.694Z,40.50
2019-02-21T08:06:20.344Z,36.30
2019-02-21T08:08:49.617Z,38.27
2019-02-21T08:11:18.772Z,41.87
2019-02-21T08:13:48.091Z,33.57
2019-02-21T08:16:17.386Z,35.40
2019-02-21T08:18:46.873Z,34.77
2019-02-21T08:21:15.983Z,36.83
2019-02-21T08:23:50.527Z,35.70
2019-02-21T08:26:23.875Z,33.73
2019-02-21T08:28:53.654Z,34.50
2019-02-21T08:31:22.725Z,37.73
2019-02-21T08:33:58.989Z,31.60
2019-02-21T08:36:28.354Z,34.23
2019-02-21T08:38:57.653Z,33.90
2019-02-21T08:41:26.865Z,36.17
2019-02-21T08:43:57.385Z,38.90
2019-02-21T08:46:30.512Z,36.93
2019-02-21T08:48:59.894Z,35.40
2019-02-21T08:51:29.078Z,36.47
2019-02-21T08:53:59.510Z,35.43
2019-02-21T08:56:30.032Z,37.37
2019-02-21T08:59:00.122Z,33.27
2019-02-21T09:01:29.283Z,34.17
2019-02-21T09:04:09.588Z,36.73
2019-02-21T09:06:30.023Z,32.47
2019-02-21T09:08:59.250Z,37.90
2019-02-21T09:11:28.610Z,37.33
2019-02-21T09:13:57.708Z,36.43
2019-02-21T09:16:26.989Z,38.97
2019-02-21T09:18:56.191Z,35.73
2019-02-21T09:21:25.482Z,37.87
2019-02-21T09:23:56.698Z,37.73
2019-02-21T09:26:26.570Z,35.57
2019-02-21T09:28:55.610Z,36.00
2019-02-21T09:31:24.963Z,37.57
2019-02-21T09:33:54.896Z,34.03
2019-02-21T09:36:24.404Z,37.70
2019-02-21T09:38:53.471Z,33.48
2019-02-21T09:41:22.719Z,33.18
2019-02-21T09:43:52.179Z,36.83
2019-02-21T09:46:21.420Z,38.63
2019-02-21T09:48:51.474Z,32.95
2019-02-21T09:51:21.618Z,37.65
2019-02-21T09:53:50.657Z,36.57
2019-02-21T09:56:30.050Z,36.23
2019-02-21T09:58:52.938Z,36.35
2019-02-21T10:01:22.442Z,35.30
2019-02-21T10:03:57.307Z,31.55
2019-02-21T10:06:26.536Z,33.95
2019-02-21T10:08:55.725Z,31.27
2019-02-21T10:11:28.255Z,29.48
2019-02-21T10:13:57.339Z,31.85
2019-02-21T10:16:29.708Z,34.60
2019-02-21T10:18:58.974Z,33.20
2019-02-21T10:21:28.293Z,32.85
2019-02-21T10:23:57.803Z,36.33
2019-02-21T10:26:27.553Z,34.88
2019-02-21T10:28:56.766Z,34.00
2019-02-21T10:31:26.050Z,38.67
2019-02-21T10:34:09.347Z,36.20
2019-02-21T10:36:38.554Z,35.80
2019-02-21T10:39:08.151Z,32.75
2019-02-21T10:41:37.314Z,33.83
2019-02-21T10:44:06.562Z,32.73
2019-02-21T10:46:35.747Z,38.58
2019-02-21T10:49:05.027Z,29.30
2019-02-21T10:51:34.539Z,28.98
2019-02-21T10:54:03.713Z,28.98
2019-02-21T10:56:33.020Z,35.33
2019-02-21T10:59:02.173Z,29.10
2019-02-21T11:01:31.502Z,28.73
2019-02-21T11:04:00.566Z,29.85
2019-02-21T11:06:29.693Z,28.47
2019-02-21T11:09:00.955Z,30.73
2019-02-21T11:11:30.227Z,27.98
2019-02-21T11:14:00.783Z,26.55
2019-02-21T11:16:30.018Z,26.17
2019-02-21T11:18:59.348Z,22.80
2019-02-21T11:21:30.249Z,25.68
2019-02-21T11:24:00.223Z,20.75
2019-02-21T11:26:29.405Z,24.90
2019-02-21T11:28:58.661Z,27.90
2019-02-21T11:31:28.132Z,30.75
2019-02-21T11:33:57.404Z,27.05
2019-02-21T11:36:28.568Z,22.50
2019-02-21T11:39:00.528Z,23.60
2019-02-21T11:41:29.692Z,28.05
2019-02-21T11:43:59.102Z,24.75
2019-02-21T11:46:28.316Z,23.10
2019-02-21T11:48:57.674Z,22.77
2019-02-21T11:51:27.416Z,22.00
2019-02-21T11:53:56.790Z,24.32
2019-02-21T11:56:25.866Z,21.45
2019-02-21T11:58:55.240Z,20.37
2019-02-21T12:01:24.499Z,22.10
2019-02-21T12:03:53.805Z,22.60
2019-02-21T12:06:22.978Z,23.67
2019-02-21T12:08:52.703Z,20.00
2019-02-21T12:11:21.988Z,22.07
2019-02-21T12:13:51.406Z,21.27
2019-02-21T12:16:20.704Z,18.25
2019-02-21T12:18:49.903Z,20.35
2019-02-21T12:21:19.127Z,21.00
2019-02-21T12:23:48.266Z,25.95
2019-02-21T12:26:17.798Z,23.55
2019-02-21T12:28:47.275Z,26.97
2019-02-21T12:31:16.490Z,23.35
2019-02-21T12:33:45.826Z,22.42
2019-02-21T12:36:15.244Z,23.85
2019-02-21T12:38:44.544Z,21.50
2019-02-21T12:41:13.780Z,22.93
2019-02-21T12:43:44.031Z,22.82
2019-02-21T12:46:13.198Z,21.73
2019-02-21T12:48:42.554Z,23.98
2019-02-21T12:51:11.830Z,22.10
2019-02-21T12:53:41.049Z,26.07
2019-02-21T12:56:10.472Z,27.55
2019-02-21T12:58:41.833Z,27.80
2019-02-21T13:01:11.962Z,25.00
2019-02-21T13:03:41.230Z,26.57
2019-02-21T13:06:10.406Z,27.13
2019-02-21T13:08:40.343Z,26.52
2019-02-21T13:11:09.686Z,25.68
2019-02-21T13:13:40.334Z,28.35
2019-02-21T13:16:09.665Z,28.73
2019-02-21T13:18:38.799Z,37.48
2019-02-21T13:21:07.979Z,28.20
2019-02-21T13:23:37.106Z,26.68
2019-02-21T13:26:06.240Z,26.53
2019-02-21T13:28:35.914Z,26.52
2019-02-21T13:31:06.287Z,36.17
2019-02-21T13:33:36.544Z,31.20
2019-02-21T13:36:06.586Z,33.87
2019-02-21T13:38:39.330Z,38.70
2019-02-21T13:41:08.562Z,35.35
2019-02-21T13:43:37.758Z,37.45
2019-02-21T13:46:08.030Z,39.63
2019-02-21T13:48:37.335Z,39.58
2019-02-21T13:51:06.676Z,39.63
2019-02-21T13:53:35.786Z,36.80
2019-02-21T13:56:04.926Z,43.13
2019-02-21T13:58:34.007Z,47.77
2019-02-21T14:01:03.193Z,45.03
2019-02-21T14:03:32.586Z,43.80
2019-02-21T14:06:03.884Z,42.93
2019-02-21T14:08:32.898Z,45.60
2019-02-21T14:11:02.024Z,50.90
2019-02-21T14:13:31.205Z,46.43
2019-02-21T14:16:00.644Z,42.87
2019-02-21T14:18:29.796Z,44.30
2019-02-21T14:21:00.005Z,43.00
2019-02-21T14:23:29.096Z,47.87
2019-02-21T14:25:58.259Z,45.00
2019-02-21T14:28:28.439Z,47.77
2019-02-21T14:30:57.686Z,50.47
2019-02-21T14:33:26.827Z,49.73
2019-02-21T14:35:55.964Z,54.03
2019-02-21T14:38:28.159Z,49.63
2019-02-21T14:40:55.918Z,46.40
2019-02-21T14:43:25.008Z,52.70
2019-02-21T14:45:54.310Z,50.13
2019-02-21T14:48:26.645Z,41.60
2019-02-21T14:50:54.701Z,42.90
2019-02-21T14:53:24.026Z,43.43
2019-02-21T14:55:53.477Z,42.80
2019-02-21T14:58:22.775Z,39.50
2019-02-21T15:00:51.871Z,40.60
2019-02-21T15:03:22.427Z,39.17
2019-02-21T15:05:51.710Z,39.37
2019-02-21T15:08:22.193Z,36.27
2019-02-21T15:10:52.838Z,42.23
2019-02-21T15:13:25.503Z,40.90
2019-02-21T15:15:54.065Z,47.13
2019-02-21T15:18:23.297Z,40.63
2019-02-21T15:20:52.539Z,44.63
2019-02-21T15:23:21.854Z,42.73
2019-02-21T15:25:51.043Z,37.63
2019-02-21T15:28:20.245Z,41.57
2019-02-21T15:30:49.475Z,44.23
2019-02-21T15:33:18.620Z,46.13
2019-02-21T15:35:47.673Z,35.60
2019-02-21T15:38:19.946Z,37.50
2019-02-21T15:40:47.737Z,39.27
2019-02-21T15:43:16.893Z,46.07
2019-02-21T15:45:46.126Z,38.28
2019-02-21T15:48:15.747Z,38.93
2019-02-21T15:50:44.935Z,36.10
2019-02-21T15:53:14.303Z,43.77
2019-02-21T15:55:43.531Z,43.80
2019-02-21T15:58:12.663Z,34.70
2019-02-21T16:00:41.758Z,37.33
2019-02-21T16:03:10.846Z,36.90
2019-02-21T16:05:40.083Z,41.93
2019-02-21T16:08:09.723Z,35.67
2019-02-21T16:10:39.869Z,47.63
2019-02-21T16:13:09.494Z,38.35
2019-02-21T16:15:39.613Z,38.50
2019-02-21T16:18:09.479Z,41.93
2019-02-21T16:20:38.924Z,36.33
2019-02-21T16:23:08.023Z,37.63
2019-02-21T16:25:37.371Z,35.07
2019-02-21T16:28:06.561Z,37.27
2019-02-21T16:30:35.869Z,34.30
2019-02-21T16:33:05.490Z,39.23
2019-02-21T16:35:34.726Z,35.83
2019-02-21T16:38:03.806Z,35.67
2019-02-21T16:40:32.904Z,41.17
2019-02-21T16:43:02.135Z,43.43
2019-02-21T16:45:42.936Z,37.83
2019-02-21T16:48:02.244Z,41.20
2019-02-21T16:50:31.334Z,39.80
2019-02-21T16:53:00.478Z,39.03
2019-02-21T16:55:29.708Z,38.65
2019-02-21T16:57:59.187Z,35.10
2019-02-21T17:00:42.220Z,41.63
2019-02-21T17:02:59.565Z,38.03
2019-02-21T17:05:28.955Z,35.48
2019-02-21T17:07:59.021Z,38.90
2019-02-21T17:10:28.033Z,33.73
2019-02-21T17:12:57.527Z,37.37
2019-02-21T17:15:27.330Z,38.47
2019-02-21T17:18:03.926Z,39.97
2019-02-21T17:20:29.711Z,40.57
2019-02-21T17:22:58.791Z,36.10
2019-02-21T17:25:28.137Z,38.00
2019-02-21T17:27:59.194Z,41.95
2019-02-21T17:30:28.482Z,35.57
2019-02-21T17:32:57.691Z,39.67
2019-02-21T17:35:28.319Z,42.87
2019-02-21T17:37:57.571Z,41.37
2019-02-21T17:40:27.010Z,43.80
2019-02-21T17:42:56.135Z,46.93
2019-02-21T17:45:25.440Z,37.03
2019-02-21T17:47:54.756Z,41.23
2019-02-21T17:50:24.324Z,35.13
2019-02-21T17:52:53.777Z,39.55
2019-02-21T17:55:23.421Z,41.00
2019-02-21T17:57:52.614Z,36.33
2019-02-21T18:00:26.926Z,37.03
2019-02-21T18:02:56.379Z,35.28
2019-02-21T18:05:25.451Z,36.70
2019-02-21T18:07:54.762Z,34.23
2019-02-21T18:10:23.845Z,36.43
2019-02-21T18:12:54.066Z,41.53
2019-02-21T18:15:23.203Z,37.08
2019-02-21T18:17:52.595Z,37.60
2019-02-21T18:20:21.805Z,36.65
2019-02-21T18:22:50.974Z,40.95
2019-02-21T18:25:32.330Z,40.50
2019-02-21T18:28:01.569Z,35.97
2019-02-21T18:30:30.794Z,37.13
2019-02-21T18:33:00.470Z,37.57
2019-02-21T18:35:29.749Z,37.20
2019-02-21T18:37:58.904Z,41.80
2019-02-21T18:40:28.000Z,35.53
2019-02-21T18:42:57.503Z,39.47
2019-02-21T18:45:26.804Z,41.73
2019-02-21T18:47:56.073Z,41.18
2019-02-21T18:50:25.388Z,33.37
2019-02-21T18:52:54.474Z,36.37
2019-02-21T18:55:23.960Z,38.37
2019-02-21T18:57:53.265Z,37.90
2019-02-21T19:00:22.507Z,36.30
2019-02-21T19:02:51.630Z,33.20
2019-02-21T19:05:20.743Z,35.70
2019-02-21T19:08:00.415Z,39.03
2019-02-21T19:10:20.935Z,35.10
2019-02-21T19:12:50.017Z,34.90
2019-02-21T19:15:23.331Z,40.73
2019-02-21T19:17:52.759Z,38.03
2019-02-21T19:20:22.056Z,39.03
2019-02-21T19:22:51.197Z,37.83
2019-02-21T19:25:20.513Z,40.50
2019-02-21T19:27:50.386Z,33.30
2019-02-21T19:30:25.605Z,34.27
2019-02-21T19:32:54.190Z,35.57
2019-02-21T19:35:24.280Z,36.93
2019-02-21T19:37:53.523Z,38.20
2019-02-21T19:40:22.935Z,35.47
2019-02-21T19:42:52.208Z,34.30
2019-02-21T19:45:21.742Z,37.07
2019-02-21T19:47:50.793Z,41.43
2019-02-21T19:50:19.948Z,37.70
2019-02-21T19:52:49.042Z,37.73
2019-02-21T19:55:18.122Z,40.93
2019-02-21T19:57:47.346Z,39.00
2019-02-21T20:00:18.843Z,42.77
2019-02-21T20:02:48.654Z,43.00
2019-02-21T20:05:17.802Z,39.27
2019-02-21T20:07:46.974Z,45.33
2019-02-21T20:10:16.385Z,41.47
2019-02-21T20:12:47.019Z,43.80
2019-02-21T20:15:16.278Z,42.93
2019-02-21T20:17:45.685Z,45.25
2019-02-21T20:20:17.090Z,39.13
2019-02-21T20:22:46.535Z,42.03
2019-02-21T20:25:15.974Z,44.67
2019-02-21T20:27:45.195Z,49.17
2019-02-21T20:30:15.003Z,49.20
2019-02-21T20:32:44.083Z,41.50
2019-02-21T20:35:13.308Z,44.10
2019-02-21T20:37:42.983Z,41.83
2019-02-21T20:40:12.367Z,41.00
2019-02-21T20:42:41.506Z,49.35
2019-02-21T20:45:10.802Z,42.40
2019-02-21T20:47:39.929Z,49.98
2019-02-21T20:50:09.682Z,48.25
2019-02-21T20:52:38.829Z,50.00
2019-02-21T20:55:10.514Z,39.40
2019-02-21T20:57:40.416Z,42.10
2019-02-21T21:00:10.964Z,42.77
2019-02-21T21:02:40.106Z,54.37
2019-02-21T21:05:09.318Z,47.77
2019-02-21T21:07:38.403Z,51.63
2019-02-21T21:10:09.228Z,55.23
2019-02-21T21:12:38.453Z,53.87
2019-02-21T21:15:09.590Z,54.13
2019-02-21T21:17:39.050Z,56.67
2019-02-21T21:20:16.390Z,59.53
2019-02-21T21:22:40.184Z,55.57
2019-02-21T21:25:11.843Z,59.17
2019-02-21T21:27:41.701Z,65.03
2019-02-21T21:30:12.246Z,65.10
2019-02-21T21:32:41.446Z,69.07
2019-02-21T21:35:10.613Z,72.03
2019-02-21T21:37:39.877Z,70.43
2019-02-21T21:40:10.660Z,65.83
2019-02-21T21:42:40.013Z,73.43
2019-02-21T21:45:11.830Z,78.67
2019-02-21T21:47:41.321Z,76.27
2019-02-21T21:50:11.074Z,79.83
2019-02-21T21:52:40.155Z,76.40
2019-02-21T21:55:10.615Z,78.60
2019-02-21T21:57:39.719Z,79.23
2019-02-21T22:00:12.192Z,85.53
2019-02-21T22:02:41.358Z,85.10
2019-02-21T22:05:10.650Z,84.67
2019-02-21T22:07:40.572Z,85.03
2019-02-21T22:10:10.645Z,87.90
2019-02-21T22:12:39.915Z,73.53
2019-02-21T22:15:09.833Z,79.40
2019-02-21T22:17:38.853Z,84.80
2019-02-21T22:20:08.216Z,80.63
2019-02-21T22:22:37.595Z,77.70
2019-02-21T22:25:07.780Z,88.07
2019-02-21T22:27:36.802Z,81.67
2019-02-21T22:30:07.115Z,85.40
2019-02-21T22:32:36.396Z,90.70
2019-02-21T22:35:05.821Z,94.00
2019-02-21T22:37:34.908Z,95.43
2019-02-21T22:40:04.321Z,96.57
2019-02-21T22:42:34.063Z,102.63
2019-02-21T22:45:05.453Z,89.07
2019-02-21T22:47:34.130Z,106.73
2019-02-21T22:50:03.143Z,106.23
2019-02-21T22:52:32.406Z,102.33
2019-02-21T22:55:09.394Z,103.37
2019-02-21T22:57:32.393Z,107.83
2019-02-21T23:00:02.516Z,102.23
2019-02-21T23:02:33.835Z,99.93
2019-02-21T23:05:53.698Z,96.80
2019-02-21T23:08:52.722Z,111.37
2019-02-21T23:11:22.122Z,84.87
2019-02-21T23:13:51.605Z,90.57
2019-02-21T23:16:20.722Z,90.67
2019-02-21T23:18:50.585Z,83.87
2019-02-21T23:21:19.979Z,83.30
2019-02-21T23:23:49.106Z,90.13
2019-02-21T23:26:18.184Z,86.00
2019-02-21T23:28:47.394Z,91.47
2019-02-21T23:31:16.740Z,87.30
2019-02-21T23:33:49.568Z,81.17
2019-02-21T23:36:19.636Z,85.90
2019-02-21T23:38:48.889Z,84.40
2019-02-21T23:41:18.453Z,98.57
2019-02-21T23:43:47.724Z,93.73
2019-02-21T23:46:17.118Z,90.23
2019-02-21T23:48:46.499Z,85.67
2019-02-21T23:51:15.850Z,89.83
2019-02-21T23:53:45.925Z,94.37
2019-02-21T23:56:15.187Z,103.30
2019-02-21T23:58:44.475Z,98.50
